首页
METAR-TAF:

METAR-TAF

机场 :

埃森博阿国际机场

安卡拉埃森博阿, 土耳其

纬度: 40-07N, 经度: 032-59E, 海拔: 953米

当前天气观测

该预报发布于27分钟前的04:50 UTC
风速5节,风向,在东北东转东南之间变化
温度 15°C
湿度 88%
气压 1009 hPa
能见度10公里或以上
散云层高于3500英尺
多云层高于9000英尺
小阵雨

METAR: LTAC 180450Z 08005KT 040V110 9999 -SHRA SCT035 BKN090 15/13 Q1009 NOSIG RMK RWY21L 10003KT RWY03L 07004KT 030V100 RWY21R 00000KT

时间: 08:17 (05:17 UTC)

预报

该预报发布于6小时和37分钟前的22:40 UTC
预报有效从18日的 00点(UTC)到 18日的 24点(UTC)
风速2节,风向多变
能见度10公里或以上
散云层高于4000英尺
短暂存在
从 18日的 00点(UTC)到 18日的 04点(UTC)
多云层高于3000英尺
多云层高于8000英尺
小阵雨
短暂存在
从 18日的 04点(UTC)到 18日的 08点(UTC)
多云层高于3000英尺
多云层高于8000英尺
小阵雨
成为
从 18日的 07点(UTC)到 18日的 09点(UTC)
风速12节,风向东北
几率 30% :
短暂存在
从 18日的 11点(UTC)到 18日的 15点(UTC)
少量云层高于2500英尺, 积雨云.
多云层高于3000英尺
雷暴, 小雨

TAF: LTAC 172240Z 1800/1824 VRB02KT 9999 SCT040 TEMPO 1800/1804 -SHRA BKN030 BKN080 TEMPO 1804/1808 -SHRA BKN030 BKN080 BECMG 1807/1809 04012KT PROB30 TEMPO 1811/1815 -TSRA FEW025CB BKN030

超过4000个机场的气象观测和天气预报(METAR&TAF报告)。

可查询的气象台以黄色和红色小点在地图上表示。

将鼠标移到小点上方,可查看气象台名称。

然后点击查看天气观测和预报。

如需切换地图:点击带黑十字的绿色按钮放大地图;点击带横线的绿色按钮缩小地图;或者点击绿色箭头查看邻近地区的地图。


METAR-TAF: